sensor_id;sensor_type;location;lat;lon;timestamp;P1;durP1;ratioP1;P2;durP2;ratioP2
76196;SDS011;64974;53.144;17.962;2023-03-13T00:00:13;13.85;;;5.70;;
76196;SDS011;64974;53.144;17.962;2023-03-13T00:02:40;14.45;;;5.28;;
76196;SDS011;64974;53.144;17.962;2023-03-13T00:05:05;13.35;;;4.95;;
76196;SDS011;64974;53.144;17.962;2023-03-13T00:07:31;12.45;;;4.93;;
76196;SDS011;64974;53.144;17.962;2023-03-13T00:09:56;13.07;;;6.33;;
76196;SDS011;64974;53.144;17.962;2023-03-13T00:12:21;15.00;;;5.53;;
76196;SDS011;64974;53.144;17.962;2023-03-13T00:14:46;11.03;;;4.97;;
76196;SDS011;64974;53.144;17.962;2023-03-13T00:17:12;12.27;;;5.45;;
76196;SDS011;64974;53.144;17.962;2023-03-13T00:19:37;13.60;;;5.77;;
76196;SDS011;64974;53.144;17.962;2023-03-13T00:22:02;12.67;;;5.83;;
76196;SDS011;64974;53.144;17.962;2023-03-13T00:24:28;13.98;;;6.18;;
76196;SDS011;64974;53.144;17.962;2023-03-13T00:26:54;12.83;;;5.90;;
76196;SDS011;64974;53.144;17.962;2023-03-13T00:29:19;15.52;;;6.25;;
76196;SDS011;64974;53.144;17.962;2023-03-13T00:31:44;14.43;;;7.17;;
76196;SDS011;64974;53.144;17.962;2023-03-13T00:34:10;16.55;;;6.07;;
76196;SDS011;64974;53.144;17.962;2023-03-13T00:36:35;15.43;;;6.32;;
76196;SDS011;64974;53.144;17.962;2023-03-13T00:39:01;13.80;;;6.10;;
76196;SDS011;64974;53.144;17.962;2023-03-13T00:41:28;12.45;;;5.38;;
76196;SDS011;64974;53.144;17.962;2023-03-13T00:43:55;14.85;;;6.70;;
76196;SDS011;64974;53.144;17.962;2023-03-13T00:46:21;16.40;;;6.50;;
76196;SDS011;64974;53.144;17.962;2023-03-13T00:48:48;11.73;;;6.40;;
76196;SDS011;64974;53.144;17.962;2023-03-13T00:51:13;11.98;;;5.85;;
76196;SDS011;64974;53.144;17.962;2023-03-13T00:53:39;12.60;;;5.80;;
76196;SDS011;64974;53.144;17.962;2023-03-13T01:01:05;11.43;;;4.82;;
76196;SDS011;64974;53.144;17.962;2023-03-13T01:03:34;8.10;;;4.68;;
76196;SDS011;64974;53.144;17.962;2023-03-13T01:06:01;7.60;;;4.72;;
76196;SDS011;64974;53.144;17.962;2023-03-13T01:08:27;8.63;;;4.43;;
76196;SDS011;64974;53.144;17.962;2023-03-13T01:11:00;11.80;;;4.60;;
76196;SDS011;64974;53.144;17.962;2023-03-13T01:13:28;8.93;;;4.25;;
76196;SDS011;64974;53.144;17.962;2023-03-13T01:15:54;13.55;;;4.07;;
76196;SDS011;64974;53.144;17.962;2023-03-13T01:18:19;9.05;;;4.03;;
76196;SDS011;64974;53.144;17.962;2023-03-13T01:20:45;11.50;;;4.35;;
76196;SDS011;64974;53.144;17.962;2023-03-13T01:23:10;11.13;;;5.10;;
76196;SDS011;64974;53.144;17.962;2023-03-13T01:25:36;7.72;;;3.63;;
76196;SDS011;64974;53.144;17.962;2023-03-13T01:28:02;11.23;;;4.38;;
76196;SDS011;64974;53.144;17.962;2023-03-13T01:30:27;10.55;;;4.00;;
76196;SDS011;64974;53.144;17.962;2023-03-13T01:32:53;10.20;;;4.93;;
76196;SDS011;64974;53.144;17.962;2023-03-13T01:35:18;10.13;;;3.73;;
76196;SDS011;64974;53.144;17.962;2023-03-13T01:37:43;8.20;;;4.43;;
76196;SDS011;64974;53.144;17.962;2023-03-13T01:40:09;10.03;;;4.87;;
76196;SDS011;64974;53.144;17.962;2023-03-13T01:42:51;9.57;;;4.97;;
76196;SDS011;64974;53.144;17.962;2023-03-13T01:48:16;15.00;;;6.57;;
76196;SDS011;64974;53.144;17.962;2023-03-13T01:50:42;14.57;;;7.30;;
76196;SDS011;64974;53.144;17.962;2023-03-13T01:53:07;16.00;;;6.75;;
76196;SDS011;64974;53.144;17.962;2023-03-13T01:55:33;17.33;;;7.63;;
76196;SDS011;64974;53.144;17.962;2023-03-13T01:57:58;12.50;;;5.45;;
76196;SDS011;64974;53.144;17.962;2023-03-13T02:00:26;12.85;;;5.93;;
76196;SDS011;64974;53.144;17.962;2023-03-13T02:02:54;17.00;;;6.68;;
76196;SDS011;64974;53.144;17.962;2023-03-13T02:05:21;13.90;;;6.53;;
76196;SDS011;64974;53.144;17.962;2023-03-13T02:10:31;13.70;;;6.20;;
76196;SDS011;64974;53.144;17.962;2023-03-13T02:12:58;16.48;;;7.47;;
76196;SDS011;64974;53.144;17.962;2023-03-13T02:15:25;15.65;;;6.93;;
76196;SDS011;64974;53.144;17.962;2023-03-13T02:17:51;14.88;;;6.45;;
76196;SDS011;64974;53.144;17.962;2023-03-13T02:20:18;14.23;;;6.38;;
76196;SDS011;64974;53.144;17.962;2023-03-13T02:27:44;20.27;;;7.88;;
76196;SDS011;64974;53.144;17.962;2023-03-13T02:30:12;16.35;;;7.18;;
76196;SDS011;64974;53.144;17.962;2023-03-13T02:35:05;16.50;;;6.63;;
76196;SDS011;64974;53.144;17.962;2023-03-13T02:37:32;14.23;;;7.07;;
76196;SDS011;64974;53.144;17.962;2023-03-13T02:39:59;14.23;;;7.23;;
76196;SDS011;64974;53.144;17.962;2023-03-13T02:42:25;14.38;;;7.22;;
76196;SDS011;64974;53.144;17.962;2023-03-13T02:44:52;12.80;;;6.05;;
76196;SDS011;64974;53.144;17.962;2023-03-13T02:47:18;13.73;;;7.03;;
76196;SDS011;64974;53.144;17.962;2023-03-13T02:49:47;18.20;;;7.00;;
76196;SDS011;64974;53.144;17.962;2023-03-13T02:52:19;16.88;;;7.43;;
76196;SDS011;64974;53.144;17.962;2023-03-13T02:57:13;13.63;;;6.35;;
76196;SDS011;64974;53.144;17.962;2023-03-13T02:59:38;13.50;;;6.40;;
76196;SDS011;64974;53.144;17.962;2023-03-13T03:02:04;10.88;;;6.70;;
76196;SDS011;64974;53.144;17.962;2023-03-13T03:04:29;14.45;;;6.90;;
76196;SDS011;64974;53.144;17.962;2023-03-13T03:06:55;14.05;;;6.88;;
76196;SDS011;64974;53.144;17.962;2023-03-13T03:09:20;14.07;;;7.28;;
76196;SDS011;64974;53.144;17.962;2023-03-13T03:11:46;15.82;;;7.50;;
76196;SDS011;64974;53.144;17.962;2023-03-13T03:14:11;16.25;;;6.88;;
76196;SDS011;64974;53.144;17.962;2023-03-13T03:16:37;13.13;;;7.22;;
76196;SDS011;64974;53.144;17.962;2023-03-13T03:19:03;13.63;;;6.85;;
76196;SDS011;64974;53.144;17.962;2023-03-13T03:21:28;12.23;;;6.75;;
76196;SDS011;64974;53.144;17.962;2023-03-13T03:23:54;13.35;;;6.93;;
76196;SDS011;64974;53.144;17.962;2023-03-13T03:26:19;13.35;;;6.97;;
76196;SDS011;64974;53.144;17.962;2023-03-13T03:28:45;17.25;;;6.80;;
76196;SDS011;64974;53.144;17.962;2023-03-13T03:31:11;17.02;;;6.82;;
76196;SDS011;64974;53.144;17.962;2023-03-13T03:33:37;15.90;;;7.82;;
76196;SDS011;64974;53.144;17.962;2023-03-13T03:36:04;17.33;;;7.53;;
76196;SDS011;64974;53.144;17.962;2023-03-13T03:38:31;19.55;;;8.90;;
76196;SDS011;64974;53.144;17.962;2023-03-13T03:40:57;17.63;;;8.02;;
76196;SDS011;64974;53.144;17.962;2023-03-13T03:43:22;20.23;;;7.45;;
76196;SDS011;64974;53.144;17.962;2023-03-13T03:45:48;17.98;;;8.95;;
76196;SDS011;64974;53.144;17.962;2023-03-13T03:48:13;20.43;;;9.37;;
76196;SDS011;64974;53.144;17.962;2023-03-13T03:50:38;17.67;;;7.82;;
76196;SDS011;64974;53.144;17.962;2023-03-13T03:53:04;19.03;;;8.20;;
76196;SDS011;64974;53.144;17.962;2023-03-13T03:55:29;17.33;;;8.27;;
76196;SDS011;64974;53.144;17.962;2023-03-13T03:57:54;18.48;;;8.45;;
76196;SDS011;64974;53.144;17.962;2023-03-13T04:00:20;21.17;;;9.80;;
76196;SDS011;64974;53.144;17.962;2023-03-13T04:02:45;17.50;;;7.63;;
76196;SDS011;64974;53.144;17.962;2023-03-13T04:05:11;19.17;;;8.45;;
76196;SDS011;64974;53.144;17.962;2023-03-13T04:07:36;20.63;;;8.70;;
76196;SDS011;64974;53.144;17.962;2023-03-13T04:10:02;19.50;;;9.45;;
76196;SDS011;64974;53.144;17.962;2023-03-13T04:12:28;23.27;;;10.13;;
76196;SDS011;64974;53.144;17.962;2023-03-13T04:14:53;22.47;;;9.27;;
76196;SDS011;64974;53.144;17.962;2023-03-13T04:17:19;23.10;;;9.43;;
76196;SDS011;64974;53.144;17.962;2023-03-13T04:19:44;21.88;;;9.75;;
76196;SDS011;64974;53.144;17.962;2023-03-13T04:22:09;23.55;;;9.52;;
76196;SDS011;64974;53.144;17.962;2023-03-13T04:24:35;21.77;;;9.63;;
76196;SDS011;64974;53.144;17.962;2023-03-13T04:27:00;26.85;;;10.40;;
76196;SDS011;64974;53.144;17.962;2023-03-13T04:29:27;28.90;;;10.38;;
76196;SDS011;64974;53.144;17.962;2023-03-13T04:31:53;23.80;;;9.52;;
76196;SDS011;64974;53.144;17.962;2023-03-13T04:34:18;25.98;;;11.02;;
76196;SDS011;64974;53.144;17.962;2023-03-13T04:36:44;23.13;;;10.77;;
76196;SDS011;64974;53.144;17.962;2023-03-13T04:39:09;21.67;;;9.85;;
76196;SDS011;64974;53.144;17.962;2023-03-13T04:41:34;25.77;;;10.97;;
76196;SDS011;64974;53.144;17.962;2023-03-13T04:44:00;21.57;;;10.60;;
76196;SDS011;64974;53.144;17.962;2023-03-13T04:46:25;22.65;;;9.90;;
76196;SDS011;64974;53.144;17.962;2023-03-13T04:48:50;29.97;;;11.30;;
76196;SDS011;64974;53.144;17.962;2023-03-13T04:51:16;27.07;;;11.77;;
76196;SDS011;64974;53.144;17.962;2023-03-13T04:53:41;24.13;;;10.87;;
76196;SDS011;64974;53.144;17.962;2023-03-13T04:56:06;25.17;;;11.50;;
76196;SDS011;64974;53.144;17.962;2023-03-13T04:58:32;27.90;;;11.38;;
76196;SDS011;64974;53.144;17.962;2023-03-13T05:00:57;28.50;;;11.10;;
76196;SDS011;64974;53.144;17.962;2023-03-13T05:03:23;27.17;;;12.45;;
76196;SDS011;64974;53.144;17.962;2023-03-13T05:05:48;26.27;;;12.52;;
76196;SDS011;64974;53.144;17.962;2023-03-13T05:08:13;29.45;;;11.13;;
76196;SDS011;64974;53.144;17.962;2023-03-13T05:10:41;28.00;;;11.57;;
76196;SDS011;64974;53.144;17.962;2023-03-13T05:13:06;26.10;;;11.38;;
76196;SDS011;64974;53.144;17.962;2023-03-13T05:15:32;29.17;;;13.50;;
76196;SDS011;64974;53.144;17.962;2023-03-13T05:17:57;28.42;;;12.15;;
76196;SDS011;64974;53.144;17.962;2023-03-13T05:20:23;31.40;;;14.30;;
76196;SDS011;64974;53.144;17.962;2023-03-13T05:22:48;31.83;;;12.43;;
76196;SDS011;64974;53.144;17.962;2023-03-13T05:25:14;33.42;;;12.98;;
76196;SDS011;64974;53.144;17.962;2023-03-13T05:27:39;29.48;;;13.93;;
76196;SDS011;64974;53.144;17.962;2023-03-13T05:30:05;30.47;;;13.77;;
76196;SDS011;64974;53.144;17.962;2023-03-13T05:32:30;30.10;;;12.93;;
76196;SDS011;64974;53.144;17.962;2023-03-13T05:34:56;30.00;;;13.17;;
76196;SDS011;64974;53.144;17.962;2023-03-13T05:37:21;32.20;;;13.40;;
76196;SDS011;64974;53.144;17.962;2023-03-13T05:39:46;29.90;;;13.90;;
76196;SDS011;64974;53.144;17.962;2023-03-13T05:42:12;29.40;;;13.25;;
76196;SDS011;64974;53.144;17.962;2023-03-13T05:44:37;32.70;;;13.20;;
76196;SDS011;64974;53.144;17.962;2023-03-13T05:47:02;32.70;;;14.37;;
76196;SDS011;64974;53.144;17.962;2023-03-13T05:49:28;31.92;;;14.63;;
76196;SDS011;64974;53.144;17.962;2023-03-13T05:51:53;34.40;;;15.27;;
76196;SDS011;64974;53.144;17.962;2023-03-13T05:54:18;35.43;;;14.27;;
76196;SDS011;64974;53.144;17.962;2023-03-13T05:56:44;32.42;;;15.65;;
76196;SDS011;64974;53.144;17.962;2023-03-13T05:59:12;33.28;;;15.65;;
76196;SDS011;64974;53.144;17.962;2023-03-13T06:01:38;39.17;;;16.38;;
76196;SDS011;64974;53.144;17.962;2023-03-13T06:04:03;37.15;;;15.63;;
76196;SDS011;64974;53.144;17.962;2023-03-13T06:06:28;34.57;;;15.47;;
76196;SDS011;64974;53.144;17.962;2023-03-13T06:08:54;38.08;;;15.13;;
76196;SDS011;64974;53.144;17.962;2023-03-13T06:11:19;34.88;;;15.90;;
76196;SDS011;64974;53.144;17.962;2023-03-13T06:13:44;34.37;;;14.97;;
76196;SDS011;64974;53.144;17.962;2023-03-13T06:16:10;32.92;;;14.85;;
76196;SDS011;64974;53.144;17.962;2023-03-13T06:18:35;38.23;;;15.70;;
76196;SDS011;64974;53.144;17.962;2023-03-13T06:21:01;36.80;;;16.40;;
76196;SDS011;64974;53.144;17.962;2023-03-13T06:23:26;33.95;;;14.70;;
76196;SDS011;64974;53.144;17.962;2023-03-13T06:25:52;41.97;;;16.73;;
76196;SDS011;64974;53.144;17.962;2023-03-13T06:28:18;35.22;;;16.42;;
76196;SDS011;64974;53.144;17.962;2023-03-13T06:30:43;38.63;;;17.80;;
76196;SDS011;64974;53.144;17.962;2023-03-13T06:33:09;42.65;;;16.98;;
76196;SDS011;64974;53.144;17.962;2023-03-13T06:35:37;37.97;;;16.27;;
76196;SDS011;64974;53.144;17.962;2023-03-13T06:38:04;37.00;;;15.95;;
76196;SDS011;64974;53.144;17.962;2023-03-13T06:40:29;35.60;;;17.47;;
76196;SDS011;64974;53.144;17.962;2023-03-13T06:42:54;36.30;;;15.67;;
76196;SDS011;64974;53.144;17.962;2023-03-13T06:45:20;41.03;;;16.43;;
76196;SDS011;64974;53.144;17.962;2023-03-13T06:47:45;36.90;;;15.63;;
76196;SDS011;64974;53.144;17.962;2023-03-13T06:50:10;38.33;;;16.00;;
76196;SDS011;64974;53.144;17.962;2023-03-13T06:52:36;38.33;;;17.90;;
76196;SDS011;64974;53.144;17.962;2023-03-13T06:55:02;36.30;;;15.82;;
76196;SDS011;64974;53.144;17.962;2023-03-13T06:57:28;37.92;;;16.80;;
76196;SDS011;64974;53.144;17.962;2023-03-13T06:59:53;35.80;;;16.83;;
76196;SDS011;64974;53.144;17.962;2023-03-13T07:02:18;36.63;;;16.65;;
76196;SDS011;64974;53.144;17.962;2023-03-13T07:04:44;40.45;;;16.17;;
76196;SDS011;64974;53.144;17.962;2023-03-13T07:07:10;35.40;;;14.38;;
76196;SDS011;64974;53.144;17.962;2023-03-13T07:09:35;34.25;;;15.40;;
76196;SDS011;64974;53.144;17.962;2023-03-13T07:12:01;29.15;;;14.55;;
76196;SDS011;64974;53.144;17.962;2023-03-13T07:14:27;33.90;;;14.70;;
76196;SDS011;64974;53.144;17.962;2023-03-13T07:16:52;29.45;;;14.07;;
76196;SDS011;64974;53.144;17.962;2023-03-13T07:19:18;35.13;;;14.40;;
76196;SDS011;64974;53.144;17.962;2023-03-13T07:21:43;28.40;;;13.55;;
76196;SDS011;64974;53.144;17.962;2023-03-13T07:24:08;27.40;;;12.87;;
76196;SDS011;64974;53.144;17.962;2023-03-13T07:26:34;25.75;;;11.77;;
76196;SDS011;64974;53.144;17.962;2023-03-13T07:28:59;27.63;;;12.00;;
76196;SDS011;64974;53.144;17.962;2023-03-13T07:31:24;22.87;;;11.23;;
76196;SDS011;64974;53.144;17.962;2023-03-13T07:33:50;25.33;;;13.13;;
76196;SDS011;64974;53.144;17.962;2023-03-13T07:36:18;28.45;;;13.35;;
76196;SDS011;64974;53.144;17.962;2023-03-13T07:38:46;26.60;;;13.43;;
76196;SDS011;64974;53.144;17.962;2023-03-13T07:41:15;26.67;;;12.18;;
76196;SDS011;64974;53.144;17.962;2023-03-13T07:43:40;21.40;;;10.40;;
76196;SDS011;64974;53.144;17.962;2023-03-13T07:46:06;25.85;;;11.02;;
76196;SDS011;64974;53.144;17.962;2023-03-13T07:48:37;22.40;;;10.45;;
76196;SDS011;64974;53.144;17.962;2023-03-13T07:51:04;16.77;;;9.35;;
76196;SDS011;64974;53.144;17.962;2023-03-13T07:53:32;22.02;;;9.75;;
76196;SDS011;64974;53.144;17.962;2023-03-13T07:55:58;17.17;;;8.80;;
76196;SDS011;64974;53.144;17.962;2023-03-13T07:58:25;17.17;;;7.50;;
76196;SDS011;64974;53.144;17.962;2023-03-13T08:00:52;12.00;;;6.97;;
76196;SDS011;64974;53.144;17.962;2023-03-13T08:03:18;14.15;;;7.60;;
76196;SDS011;64974;53.144;17.962;2023-03-13T08:05:43;15.07;;;7.70;;
76196;SDS011;64974;53.144;17.962;2023-03-13T08:08:09;15.50;;;7.00;;
76196;SDS011;64974;53.144;17.962;2023-03-13T08:10:34;15.93;;;7.07;;
76196;SDS011;64974;53.144;17.962;2023-03-13T08:13:00;14.02;;;7.30;;
76196;SDS011;64974;53.144;17.962;2023-03-13T08:15:25;18.70;;;8.55;;
76196;SDS011;64974;53.144;17.962;2023-03-13T08:17:52;16.17;;;7.55;;
76196;SDS011;64974;53.144;17.962;2023-03-13T08:20:18;14.00;;;7.72;;
76196;SDS011;64974;53.144;17.962;2023-03-13T08:22:46;12.03;;;5.90;;
76196;SDS011;64974;53.144;17.962;2023-03-13T08:25:12;14.45;;;5.97;;
76196;SDS011;64974;53.144;17.962;2023-03-13T08:27:38;10.60;;;5.95;;
76196;SDS011;64974;53.144;17.962;2023-03-13T08:30:03;13.03;;;6.50;;
76196;SDS011;64974;53.144;17.962;2023-03-13T08:32:31;13.57;;;5.85;;
76196;SDS011;64974;53.144;17.962;2023-03-13T08:34:57;11.45;;;5.53;;
76196;SDS011;64974;53.144;17.962;2023-03-13T08:37:22;15.13;;;6.57;;
76196;SDS011;64974;53.144;17.962;2023-03-13T08:39:48;13.83;;;6.13;;
76196;SDS011;64974;53.144;17.962;2023-03-13T08:42:13;15.07;;;5.50;;
76196;SDS011;64974;53.144;17.962;2023-03-13T08:44:39;15.10;;;5.82;;
76196;SDS011;64974;53.144;17.962;2023-03-13T08:47:05;13.40;;;6.32;;
76196;SDS011;64974;53.144;17.962;2023-03-13T08:49:31;18.83;;;7.43;;
76196;SDS011;64974;53.144;17.962;2023-03-13T08:51:56;15.18;;;5.28;;
76196;SDS011;64974;53.144;17.962;2023-03-13T08:54:21;12.77;;;6.65;;
76196;SDS011;64974;53.144;17.962;2023-03-13T08:56:47;17.73;;;8.17;;
76196;SDS011;64974;53.144;17.962;2023-03-13T08:59:12;12.48;;;5.82;;
76196;SDS011;64974;53.144;17.962;2023-03-13T09:01:39;15.23;;;8.23;;
76196;SDS011;64974;53.144;17.962;2023-03-13T09:04:05;12.85;;;6.45;;
76196;SDS011;64974;53.144;17.962;2023-03-13T09:06:31;17.55;;;8.00;;
76196;SDS011;64974;53.144;17.962;2023-03-13T09:08:57;14.65;;;6.30;;
76196;SDS011;64974;53.144;17.962;2023-03-13T09:11:23;14.75;;;6.63;;
76196;SDS011;64974;53.144;17.962;2023-03-13T09:13:49;15.25;;;7.18;;
76196;SDS011;64974;53.144;17.962;2023-03-13T09:16:19;15.13;;;6.85;;
76196;SDS011;64974;53.144;17.962;2023-03-13T09:18:45;15.63;;;6.90;;
76196;SDS011;64974;53.144;17.962;2023-03-13T09:21:12;15.18;;;6.93;;
76196;SDS011;64974;53.144;17.962;2023-03-13T09:23:39;15.23;;;7.07;;
76196;SDS011;64974;53.144;17.962;2023-03-13T09:26:04;17.67;;;7.35;;
76196;SDS011;64974;53.144;17.962;2023-03-13T09:28:29;18.75;;;7.57;;
76196;SDS011;64974;53.144;17.962;2023-03-13T09:30:55;26.17;;;8.52;;
76196;SDS011;64974;53.144;17.962;2023-03-13T09:33:30;13.60;;;7.28;;
76196;SDS011;64974;53.144;17.962;2023-03-13T09:35:55;15.13;;;6.63;;
76196;SDS011;64974;53.144;17.962;2023-03-13T09:38:21;16.75;;;7.70;;
76196;SDS011;64974;53.144;17.962;2023-03-13T09:40:47;16.25;;;7.65;;
76196;SDS011;64974;53.144;17.962;2023-03-13T09:48:57;15.55;;;6.45;;
76196;SDS011;64974;53.144;17.962;2023-03-13T09:56:50;21.52;;;8.27;;
76196;SDS011;64974;53.144;17.962;2023-03-13T10:02:14;14.25;;;6.25;;
76196;SDS011;64974;53.144;17.962;2023-03-13T10:07:34;15.63;;;7.50;;
76196;SDS011;64974;53.144;17.962;2023-03-13T10:10:00;18.50;;;7.57;;
76196;SDS011;64974;53.144;17.962;2023-03-13T10:12:30;21.65;;;8.95;;
76196;SDS011;64974;53.144;17.962;2023-03-13T10:17:35;16.35;;;6.72;;
76196;SDS011;64974;53.144;17.962;2023-03-13T10:20:13;15.15;;;7.38;;
76196;SDS011;64974;53.144;17.962;2023-03-13T10:22:44;14.20;;;6.93;;
76196;SDS011;64974;53.144;17.962;2023-03-13T10:27:57;15.60;;;7.57;;
76196;SDS011;64974;53.144;17.962;2023-03-13T10:30:33;17.30;;;6.28;;
76196;SDS011;64974;53.144;17.962;2023-03-13T10:35:40;16.83;;;6.45;;
76196;SDS011;64974;53.144;17.962;2023-03-13T10:38:14;16.75;;;6.07;;
76196;SDS011;64974;53.144;17.962;2023-03-13T10:40:43;17.27;;;6.88;;
76196;SDS011;64974;53.144;17.962;2023-03-13T10:43:21;15.23;;;5.97;;
76196;SDS011;64974;53.144;17.962;2023-03-13T10:45:50;15.75;;;6.28;;
76196;SDS011;64974;53.144;17.962;2023-03-13T10:48:20;15.18;;;6.43;;
76196;SDS011;64974;53.144;17.962;2023-03-13T10:50:48;17.67;;;5.68;;
76196;SDS011;64974;53.144;17.962;2023-03-13T10:55:53;19.85;;;6.28;;
76196;SDS011;64974;53.144;17.962;2023-03-13T10:58:25;14.13;;;5.95;;
76196;SDS011;64974;53.144;17.962;2023-03-13T11:01:08;16.60;;;6.35;;
76196;SDS011;64974;53.144;17.962;2023-03-13T11:03:39;16.75;;;6.57;;
76196;SDS011;64974;53.144;17.962;2023-03-13T11:06:04;19.55;;;7.85;;
76196;SDS011;64974;53.144;17.962;2023-03-13T11:08:33;14.23;;;6.43;;
76196;SDS011;64974;53.144;17.962;2023-03-13T11:11:04;23.00;;;8.10;;
76196;SDS011;64974;53.144;17.962;2023-03-13T11:16:10;18.42;;;6.78;;
76196;SDS011;64974;53.144;17.962;2023-03-13T11:24:20;18.73;;;7.22;;
76196;SDS011;64974;53.144;17.962;2023-03-13T11:26:56;19.13;;;7.82;;
76196;SDS011;64974;53.144;17.962;2023-03-13T11:29:27;19.35;;;8.20;;
76196;SDS011;64974;53.144;17.962;2023-03-13T11:32:01;22.50;;;8.77;;
76196;SDS011;64974;53.144;17.962;2023-03-13T11:34:31;20.75;;;7.88;;
76196;SDS011;64974;53.144;17.962;2023-03-13T11:37:13;15.57;;;8.20;;
76196;SDS011;64974;53.144;17.962;2023-03-13T11:56:23;22.98;;;7.40;;
76196;SDS011;64974;53.144;17.962;2023-03-13T12:02:11;21.92;;;8.30;;
76196;SDS011;64974;53.144;17.962;2023-03-13T12:04:43;23.70;;;7.55;;
76196;SDS011;64974;53.144;17.962;2023-03-13T12:07:17;20.25;;;8.60;;
76196;SDS011;64974;53.144;17.962;2023-03-13T12:09:50;19.13;;;7.30;;
76196;SDS011;64974;53.144;17.962;2023-03-13T12:17:47;22.45;;;8.50;;
76196;SDS011;64974;53.144;17.962;2023-03-13T12:20:21;16.17;;;9.32;;
76196;SDS011;64974;53.144;17.962;2023-03-13T12:26:03;24.92;;;10.32;;
76196;SDS011;64974;53.144;17.962;2023-03-13T12:31:28;22.23;;;9.82;;
76196;SDS011;64974;53.144;17.962;2023-03-13T12:34:05;22.95;;;10.00;;
76196;SDS011;64974;53.144;17.962;2023-03-13T12:45:29;17.40;;;8.07;;
76196;SDS011;64974;53.144;17.962;2023-03-13T12:59:39;19.92;;;9.52;;
76196;SDS011;64974;53.144;17.962;2023-03-13T13:02:13;20.45;;;10.20;;
76196;SDS011;64974;53.144;17.962;2023-03-13T13:04:40;16.35;;;8.82;;
76196;SDS011;64974;53.144;17.962;2023-03-13T13:07:20;20.67;;;9.63;;
76196;SDS011;64974;53.144;17.962;2023-03-13T13:12:37;19.17;;;8.60;;
76196;SDS011;64974;53.144;17.962;2023-03-13T13:15:30;16.33;;;8.23;;
76196;SDS011;64974;53.144;17.962;2023-03-13T13:17:57;15.20;;;8.77;;
76196;SDS011;64974;53.144;17.962;2023-03-13T13:20:29;17.50;;;8.40;;
76196;SDS011;64974;53.144;17.962;2023-03-13T13:25:47;12.32;;;7.45;;
76196;SDS011;64974;53.144;17.962;2023-03-13T13:30:48;15.40;;;8.40;;
76196;SDS011;64974;53.144;17.962;2023-03-13T13:35:43;15.75;;;7.18;;
76196;SDS011;64974;53.144;17.962;2023-03-13T13:40:56;14.45;;;7.68;;
76196;SDS011;64974;53.144;17.962;2023-03-13T13:48:39;12.77;;;6.43;;
76196;SDS011;64974;53.144;17.962;2023-03-13T13:53:33;13.77;;;7.03;;
76196;SDS011;64974;53.144;17.962;2023-03-13T13:59:02;18.45;;;7.95;;
76196;SDS011;64974;53.144;17.962;2023-03-13T14:01:31;10.55;;;6.75;;
76196;SDS011;64974;53.144;17.962;2023-03-13T14:04:22;10.70;;;5.82;;
76196;SDS011;64974;53.144;17.962;2023-03-13T14:06:51;12.23;;;7.60;;
76196;SDS011;64974;53.144;17.962;2023-03-13T14:15:12;15.48;;;7.68;;
76196;SDS011;64974;53.144;17.962;2023-03-13T14:17:59;14.48;;;7.72;;
76196;SDS011;64974;53.144;17.962;2023-03-13T14:20:27;13.13;;;7.38;;
76196;SDS011;64974;53.144;17.962;2023-03-13T14:22:53;11.07;;;7.60;;
76196;SDS011;64974;53.144;17.962;2023-03-13T14:25:21;15.45;;;7.68;;
76196;SDS011;64974;53.144;17.962;2023-03-13T14:27:47;14.52;;;7.88;;
76196;SDS011;64974;53.144;17.962;2023-03-13T14:30:14;13.38;;;8.30;;
76196;SDS011;64974;53.144;17.962;2023-03-13T14:32:41;13.88;;;8.68;;
76196;SDS011;64974;53.144;17.962;2023-03-13T14:35:07;13.85;;;8.25;;
76196;SDS011;64974;53.144;17.962;2023-03-13T14:37:40;18.45;;;8.23;;
76196;SDS011;64974;53.144;17.962;2023-03-13T14:40:22;14.35;;;8.32;;
76196;SDS011;64974;53.144;17.962;2023-03-13T14:42:50;16.73;;;9.05;;
76196;SDS011;64974;53.144;17.962;2023-03-13T14:45:20;11.90;;;7.38;;
76196;SDS011;64974;53.144;17.962;2023-03-13T14:47:59;14.32;;;8.52;;
76196;SDS011;64974;53.144;17.962;2023-03-13T14:50:26;14.63;;;7.65;;
76196;SDS011;64974;53.144;17.962;2023-03-13T14:52:52;16.02;;;7.40;;
76196;SDS011;64974;53.144;17.962;2023-03-13T14:57:55;14.60;;;8.93;;
76196;SDS011;64974;53.144;17.962;2023-03-13T15:03:19;14.80;;;8.18;;
76196;SDS011;64974;53.144;17.962;2023-03-13T15:05:49;15.40;;;9.20;;
76196;SDS011;64974;53.144;17.962;2023-03-13T15:08:27;15.88;;;8.35;;
76196;SDS011;64974;53.144;17.962;2023-03-13T15:10:52;17.00;;;9.63;;
76196;SDS011;64974;53.144;17.962;2023-03-13T15:13:31;17.00;;;9.18;;
76196;SDS011;64974;53.144;17.962;2023-03-13T15:15:58;14.40;;;8.35;;
76196;SDS011;64974;53.144;17.962;2023-03-13T15:18:40;12.25;;;7.35;;
76196;SDS011;64974;53.144;17.962;2023-03-13T15:23:56;14.45;;;6.88;;
76196;SDS011;64974;53.144;17.962;2023-03-13T15:26:24;20.20;;;10.85;;
76196;SDS011;64974;53.144;17.962;2023-03-13T15:28:49;14.02;;;7.57;;
76196;SDS011;64974;53.144;17.962;2023-03-13T15:31:14;12.68;;;7.32;;
76196;SDS011;64974;53.144;17.962;2023-03-13T15:33:41;20.23;;;10.65;;
76196;SDS011;64974;53.144;17.962;2023-03-13T15:36:07;15.45;;;8.52;;
76196;SDS011;64974;53.144;17.962;2023-03-13T15:38:32;15.95;;;7.68;;
76196;SDS011;64974;53.144;17.962;2023-03-13T15:40:58;14.38;;;9.18;;
76196;SDS011;64974;53.144;17.962;2023-03-13T15:43:23;17.17;;;9.07;;
76196;SDS011;64974;53.144;17.962;2023-03-13T15:45:49;12.93;;;8.45;;
76196;SDS011;64974;53.144;17.962;2023-03-13T15:48:20;15.70;;;9.38;;
76196;SDS011;64974;53.144;17.962;2023-03-13T15:50:54;19.25;;;10.13;;
76196;SDS011;64974;53.144;17.962;2023-03-13T15:53:26;15.48;;;9.32;;
76196;SDS011;64974;53.144;17.962;2023-03-13T15:55:53;19.77;;;9.43;;
76196;SDS011;64974;53.144;17.962;2023-03-13T15:58:20;18.25;;;10.50;;
76196;SDS011;64974;53.144;17.962;2023-03-13T16:00:46;18.67;;;10.20;;
76196;SDS011;64974;53.144;17.962;2023-03-13T16:03:17;36.58;;;14.68;;
76196;SDS011;64974;53.144;17.962;2023-03-13T16:05:44;21.58;;;9.68;;
76196;SDS011;64974;53.144;17.962;2023-03-13T16:08:14;20.23;;;9.48;;
76196;SDS011;64974;53.144;17.962;2023-03-13T16:10:42;24.02;;;10.88;;
76196;SDS011;64974;53.144;17.962;2023-03-13T16:15:33;16.77;;;8.73;;
76196;SDS011;64974;53.144;17.962;2023-03-13T16:17:59;14.73;;;7.93;;
76196;SDS011;64974;53.144;17.962;2023-03-13T16:20:25;15.90;;;7.75;;
76196;SDS011;64974;53.144;17.962;2023-03-13T16:22:52;13.43;;;8.05;;
76196;SDS011;64974;53.144;17.962;2023-03-13T16:25:18;14.18;;;6.75;;
76196;SDS011;64974;53.144;17.962;2023-03-13T16:27:43;15.97;;;8.20;;
76196;SDS011;64974;53.144;17.962;2023-03-13T16:30:17;15.93;;;7.93;;
76196;SDS011;64974;53.144;17.962;2023-03-13T16:32:53;15.18;;;7.47;;
76196;SDS011;64974;53.144;17.962;2023-03-13T16:35:18;16.52;;;8.43;;
76196;SDS011;64974;53.144;17.962;2023-03-13T16:37:44;15.93;;;7.35;;
76196;SDS011;64974;53.144;17.962;2023-03-13T16:40:12;16.80;;;8.45;;
76196;SDS011;64974;53.144;17.962;2023-03-13T16:42:43;15.02;;;7.30;;
76196;SDS011;64974;53.144;17.962;2023-03-13T16:45:08;14.23;;;8.10;;
76196;SDS011;64974;53.144;17.962;2023-03-13T16:47:34;13.60;;;8.82;;